sensor_id;sensor_type;location;lat;lon;timestamp;P1;durP1;ratioP1;P2;durP2;ratioP2
34565;SDS011;20803;42.676;26.348;2023-12-04T00:01:47;3.37;;;1.73;;
34565;SDS011;20803;42.676;26.348;2023-12-04T00:04:16;1.70;;;1.40;;
34565;SDS011;20803;42.676;26.348;2023-12-04T00:06:41;1.97;;;1.50;;
34565;SDS011;20803;42.676;26.348;2023-12-04T00:09:07;2.13;;;1.60;;
34565;SDS011;20803;42.676;26.348;2023-12-04T00:11:33;1.77;;;1.33;;
34565;SDS011;20803;42.676;26.348;2023-12-04T00:13:58;2.20;;;1.47;;
34565;SDS011;20803;42.676;26.348;2023-12-04T00:16:24;1.37;;;1.20;;
34565;SDS011;20803;42.676;26.348;2023-12-04T00:18:50;1.43;;;1.30;;
34565;SDS011;20803;42.676;26.348;2023-12-04T00:21:16;3.63;;;1.27;;
34565;SDS011;20803;42.676;26.348;2023-12-04T00:23:41;1.63;;;1.37;;
34565;SDS011;20803;42.676;26.348;2023-12-04T00:26:07;1.90;;;1.60;;
34565;SDS011;20803;42.676;26.348;2023-12-04T00:28:35;2.10;;;1.60;;
34565;SDS011;20803;42.676;26.348;2023-12-04T00:31:05;1.97;;;1.23;;
34565;SDS011;20803;42.676;26.348;2023-12-04T00:33:31;1.33;;;1.23;;
34565;SDS011;20803;42.676;26.348;2023-12-04T00:35:56;1.33;;;1.10;;
34565;SDS011;20803;42.676;26.348;2023-12-04T00:38:23;1.30;;;1.20;;
34565;SDS011;20803;42.676;26.348;2023-12-04T00:40:48;1.87;;;1.57;;
34565;SDS011;20803;42.676;26.348;2023-12-04T00:43:14;1.60;;;1.40;;
34565;SDS011;20803;42.676;26.348;2023-12-04T00:45:39;1.60;;;1.50;;
34565;SDS011;20803;42.676;26.348;2023-12-04T00:48:05;2.00;;;1.77;;
34565;SDS011;20803;42.676;26.348;2023-12-04T00:50:30;2.07;;;1.73;;
34565;SDS011;20803;42.676;26.348;2023-12-04T00:52:56;2.83;;;2.30;;
34565;SDS011;20803;42.676;26.348;2023-12-04T00:55:21;2.80;;;2.17;;
34565;SDS011;20803;42.676;26.348;2023-12-04T00:57:47;2.40;;;2.10;;
34565;SDS011;20803;42.676;26.348;2023-12-04T01:00:12;2.70;;;2.10;;
34565;SDS011;20803;42.676;26.348;2023-12-04T01:02:38;2.50;;;2.20;;
34565;SDS011;20803;42.676;26.348;2023-12-04T01:05:05;2.40;;;2.20;;
34565;SDS011;20803;42.676;26.348;2023-12-04T01:07:30;2.50;;;2.30;;
34565;SDS011;20803;42.676;26.348;2023-12-04T01:09:56;2.80;;;2.50;;
34565;SDS011;20803;42.676;26.348;2023-12-04T01:12:21;3.10;;;2.43;;
34565;SDS011;20803;42.676;26.348;2023-12-04T01:14:47;3.50;;;2.27;;
34565;SDS011;20803;42.676;26.348;2023-12-04T01:17:12;2.97;;;2.43;;
34565;SDS011;20803;42.676;26.348;2023-12-04T01:19:38;4.13;;;2.80;;
34565;SDS011;20803;42.676;26.348;2023-12-04T01:22:05;4.53;;;2.70;;
34565;SDS011;20803;42.676;26.348;2023-12-04T01:24:30;2.70;;;2.20;;
34565;SDS011;20803;42.676;26.348;2023-12-04T01:26:56;3.60;;;2.60;;
34565;SDS011;20803;42.676;26.348;2023-12-04T01:29:21;3.30;;;2.83;;
34565;SDS011;20803;42.676;26.348;2023-12-04T01:31:47;3.50;;;2.70;;
34565;SDS011;20803;42.676;26.348;2023-12-04T01:34:12;4.17;;;3.63;;
34565;SDS011;20803;42.676;26.348;2023-12-04T01:36:41;3.97;;;3.43;;
34565;SDS011;20803;42.676;26.348;2023-12-04T01:39:07;4.90;;;3.50;;
34565;SDS011;20803;42.676;26.348;2023-12-04T01:41:32;6.13;;;3.77;;
34565;SDS011;20803;42.676;26.348;2023-12-04T01:43:58;5.40;;;3.40;;
34565;SDS011;20803;42.676;26.348;2023-12-04T01:46:25;3.57;;;3.23;;
34565;SDS011;20803;42.676;26.348;2023-12-04T01:48:51;4.23;;;3.60;;
34565;SDS011;20803;42.676;26.348;2023-12-04T01:51:18;3.80;;;3.23;;
34565;SDS011;20803;42.676;26.348;2023-12-04T01:53:45;6.83;;;3.53;;
34565;SDS011;20803;42.676;26.348;2023-12-04T01:56:11;5.37;;;3.40;;
34565;SDS011;20803;42.676;26.348;2023-12-04T01:58:38;5.83;;;3.50;;
34565;SDS011;20803;42.676;26.348;2023-12-04T02:01:04;4.00;;;3.13;;
34565;SDS011;20803;42.676;26.348;2023-12-04T02:03:30;4.17;;;3.50;;
34565;SDS011;20803;42.676;26.348;2023-12-04T02:05:57;3.93;;;3.20;;
34565;SDS011;20803;42.676;26.348;2023-12-04T02:08:24;4.70;;;3.00;;
34565;SDS011;20803;42.676;26.348;2023-12-04T02:10:50;3.73;;;3.30;;
34565;SDS011;20803;42.676;26.348;2023-12-04T02:13:16;6.10;;;3.50;;
34565;SDS011;20803;42.676;26.348;2023-12-04T02:15:42;3.77;;;2.83;;
34565;SDS011;20803;42.676;26.348;2023-12-04T02:18:07;5.10;;;3.63;;
34565;SDS011;20803;42.676;26.348;2023-12-04T02:20:33;4.53;;;3.30;;
34565;SDS011;20803;42.676;26.348;2023-12-04T02:23:03;3.77;;;3.13;;
34565;SDS011;20803;42.676;26.348;2023-12-04T02:25:29;4.53;;;3.60;;
34565;SDS011;20803;42.676;26.348;2023-12-04T02:27:56;5.10;;;3.83;;
34565;SDS011;20803;42.676;26.348;2023-12-04T02:30:24;4.30;;;3.43;;
34565;SDS011;20803;42.676;26.348;2023-12-04T02:32:53;4.47;;;3.37;;
34565;SDS011;20803;42.676;26.348;2023-12-04T02:35:22;5.33;;;4.03;;
34565;SDS011;20803;42.676;26.348;2023-12-04T02:37:50;4.53;;;3.63;;
34565;SDS011;20803;42.676;26.348;2023-12-04T02:40:16;3.87;;;3.43;;
34565;SDS011;20803;42.676;26.348;2023-12-04T02:42:42;4.80;;;3.87;;
34565;SDS011;20803;42.676;26.348;2023-12-04T02:45:08;4.03;;;3.53;;
34565;SDS011;20803;42.676;26.348;2023-12-04T02:47:33;4.40;;;3.60;;
34565;SDS011;20803;42.676;26.348;2023-12-04T02:49:59;4.63;;;3.23;;
34565;SDS011;20803;42.676;26.348;2023-12-04T02:52:24;3.87;;;3.30;;
34565;SDS011;20803;42.676;26.348;2023-12-04T02:54:50;5.23;;;3.43;;
34565;SDS011;20803;42.676;26.348;2023-12-04T02:57:15;4.53;;;2.90;;
34565;SDS011;20803;42.676;26.348;2023-12-04T02:59:41;4.07;;;3.20;;
34565;SDS011;20803;42.676;26.348;2023-12-04T03:02:06;5.50;;;4.10;;
34565;SDS011;20803;42.676;26.348;2023-12-04T03:04:32;4.40;;;3.30;;
34565;SDS011;20803;42.676;26.348;2023-12-04T03:06:58;4.13;;;3.00;;
34565;SDS011;20803;42.676;26.348;2023-12-04T03:09:23;4.07;;;3.53;;
34565;SDS011;20803;42.676;26.348;2023-12-04T03:11:49;4.30;;;3.23;;
34565;SDS011;20803;42.676;26.348;2023-12-04T03:14:14;4.93;;;3.63;;
34565;SDS011;20803;42.676;26.348;2023-12-04T03:16:40;3.70;;;3.00;;
34565;SDS011;20803;42.676;26.348;2023-12-04T03:19:05;3.47;;;2.93;;
34565;SDS011;20803;42.676;26.348;2023-12-04T03:21:31;3.47;;;3.17;;
34565;SDS011;20803;42.676;26.348;2023-12-04T03:23:56;4.07;;;3.47;;
34565;SDS011;20803;42.676;26.348;2023-12-04T03:26:22;4.00;;;3.00;;
34565;SDS011;20803;42.676;26.348;2023-12-04T03:28:47;3.17;;;2.77;;
34565;SDS011;20803;42.676;26.348;2023-12-04T03:31:13;3.97;;;2.73;;
34565;SDS011;20803;42.676;26.348;2023-12-04T03:33:38;4.83;;;2.90;;
34565;SDS011;20803;42.676;26.348;2023-12-04T03:36:04;7.37;;;3.10;;
34565;SDS011;20803;42.676;26.348;2023-12-04T03:38:30;4.17;;;3.00;;
34565;SDS011;20803;42.676;26.348;2023-12-04T03:40:55;3.27;;;2.77;;
34565;SDS011;20803;42.676;26.348;2023-12-04T03:43:21;4.33;;;2.90;;
34565;SDS011;20803;42.676;26.348;2023-12-04T03:45:47;3.40;;;2.60;;
34565;SDS011;20803;42.676;26.348;2023-12-04T03:48:12;4.37;;;3.20;;
34565;SDS011;20803;42.676;26.348;2023-12-04T03:50:38;6.13;;;3.33;;
34565;SDS011;20803;42.676;26.348;2023-12-04T03:53:03;4.20;;;3.33;;
34565;SDS011;20803;42.676;26.348;2023-12-04T03:55:29;4.37;;;3.20;;
34565;SDS011;20803;42.676;26.348;2023-12-04T03:57:54;4.27;;;3.30;;
34565;SDS011;20803;42.676;26.348;2023-12-04T04:00:21;3.60;;;2.90;;
34565;SDS011;20803;42.676;26.348;2023-12-04T04:02:47;3.63;;;3.10;;
34565;SDS011;20803;42.676;26.348;2023-12-04T04:05:14;3.60;;;3.20;;
34565;SDS011;20803;42.676;26.348;2023-12-04T04:07:39;4.50;;;3.20;;
34565;SDS011;20803;42.676;26.348;2023-12-04T04:10:05;6.97;;;3.53;;
34565;SDS011;20803;42.676;26.348;2023-12-04T04:12:31;7.47;;;3.77;;
34565;SDS011;20803;42.676;26.348;2023-12-04T04:14:57;4.03;;;3.00;;
34565;SDS011;20803;42.676;26.348;2023-12-04T04:17:23;4.27;;;3.37;;
34565;SDS011;20803;42.676;26.348;2023-12-04T04:19:55;4.53;;;3.00;;
34565;SDS011;20803;42.676;26.348;2023-12-04T04:22:21;4.67;;;3.23;;
34565;SDS011;20803;42.676;26.348;2023-12-04T04:24:47;4.50;;;3.40;;
34565;SDS011;20803;42.676;26.348;2023-12-04T04:27:15;4.43;;;3.47;;
34565;SDS011;20803;42.676;26.348;2023-12-04T04:29:41;4.57;;;3.10;;
34565;SDS011;20803;42.676;26.348;2023-12-04T04:32:06;3.77;;;2.77;;
34565;SDS011;20803;42.676;26.348;2023-12-04T04:34:32;4.00;;;3.10;;
34565;SDS011;20803;42.676;26.348;2023-12-04T04:36:58;4.20;;;3.30;;
34565;SDS011;20803;42.676;26.348;2023-12-04T04:39:23;4.93;;;3.80;;
34565;SDS011;20803;42.676;26.348;2023-12-04T04:41:49;6.77;;;3.93;;
34565;SDS011;20803;42.676;26.348;2023-12-04T04:44:14;6.53;;;4.03;;
34565;SDS011;20803;42.676;26.348;2023-12-04T04:46:40;5.30;;;3.23;;
34565;SDS011;20803;42.676;26.348;2023-12-04T04:49:05;4.73;;;3.10;;
34565;SDS011;20803;42.676;26.348;2023-12-04T04:51:32;4.83;;;3.67;;
34565;SDS011;20803;42.676;26.348;2023-12-04T04:53:59;5.90;;;3.77;;
34565;SDS011;20803;42.676;26.348;2023-12-04T04:56:24;5.07;;;3.47;;
34565;SDS011;20803;42.676;26.348;2023-12-04T04:58:50;4.70;;;3.93;;
34565;SDS011;20803;42.676;26.348;2023-12-04T05:01:15;4.83;;;3.03;;
34565;SDS011;20803;42.676;26.348;2023-12-04T05:03:41;3.63;;;3.00;;
34565;SDS011;20803;42.676;26.348;2023-12-04T05:06:06;3.57;;;3.03;;
34565;SDS011;20803;42.676;26.348;2023-12-04T05:08:32;3.80;;;3.17;;
34565;SDS011;20803;42.676;26.348;2023-12-04T05:10:58;4.47;;;2.87;;
34565;SDS011;20803;42.676;26.348;2023-12-04T05:13:23;5.33;;;2.80;;
34565;SDS011;20803;42.676;26.348;2023-12-04T05:15:49;4.30;;;3.27;;
34565;SDS011;20803;42.676;26.348;2023-12-04T05:18:14;5.23;;;3.47;;
34565;SDS011;20803;42.676;26.348;2023-12-04T05:20:40;5.03;;;3.30;;
34565;SDS011;20803;42.676;26.348;2023-12-04T05:23:05;5.50;;;3.07;;
34565;SDS011;20803;42.676;26.348;2023-12-04T05:25:31;4.80;;;3.67;;
34565;SDS011;20803;42.676;26.348;2023-12-04T05:27:56;5.70;;;3.60;;
34565;SDS011;20803;42.676;26.348;2023-12-04T05:30:22;3.53;;;3.00;;
34565;SDS011;20803;42.676;26.348;2023-12-04T05:32:47;4.27;;;3.33;;
34565;SDS011;20803;42.676;26.348;2023-12-04T05:35:14;4.07;;;3.17;;
34565;SDS011;20803;42.676;26.348;2023-12-04T05:37:41;4.73;;;3.10;;
34565;SDS011;20803;42.676;26.348;2023-12-04T05:40:07;5.17;;;3.63;;
34565;SDS011;20803;42.676;26.348;2023-12-04T05:42:33;8.17;;;4.90;;
34565;SDS011;20803;42.676;26.348;2023-12-04T05:44:58;5.27;;;4.17;;
34565;SDS011;20803;42.676;26.348;2023-12-04T05:47:25;6.37;;;4.07;;
34565;SDS011;20803;42.676;26.348;2023-12-04T05:49:51;4.70;;;3.53;;
34565;SDS011;20803;42.676;26.348;2023-12-04T05:52:16;6.00;;;4.37;;
34565;SDS011;20803;42.676;26.348;2023-12-04T05:54:42;6.47;;;3.77;;
34565;SDS011;20803;42.676;26.348;2023-12-04T05:57:07;7.23;;;3.37;;
34565;SDS011;20803;42.676;26.348;2023-12-04T05:59:33;4.90;;;3.77;;
34565;SDS011;20803;42.676;26.348;2023-12-04T06:01:59;5.43;;;3.87;;
34565;SDS011;20803;42.676;26.348;2023-12-04T06:04:24;4.27;;;3.30;;
34565;SDS011;20803;42.676;26.348;2023-12-04T06:06:50;3.83;;;3.13;;
34565;SDS011;20803;42.676;26.348;2023-12-04T06:09:15;5.47;;;3.70;;
34565;SDS011;20803;42.676;26.348;2023-12-04T06:11:41;6.43;;;3.73;;
34565;SDS011;20803;42.676;26.348;2023-12-04T06:14:07;3.53;;;3.23;;
34565;SDS011;20803;42.676;26.348;2023-12-04T06:16:33;4.87;;;3.20;;
34565;SDS011;20803;42.676;26.348;2023-12-04T06:18:58;4.63;;;3.80;;
34565;SDS011;20803;42.676;26.348;2023-12-04T06:21:24;5.90;;;3.73;;
34565;SDS011;20803;42.676;26.348;2023-12-04T06:23:50;5.83;;;4.00;;
34565;SDS011;20803;42.676;26.348;2023-12-04T06:26:16;6.73;;;4.30;;
34565;SDS011;20803;42.676;26.348;2023-12-04T06:28:43;6.97;;;3.80;;
34565;SDS011;20803;42.676;26.348;2023-12-04T06:31:09;5.20;;;4.07;;
34565;SDS011;20803;42.676;26.348;2023-12-04T06:33:35;5.27;;;3.80;;
34565;SDS011;20803;42.676;26.348;2023-12-04T06:36:01;10.53;;;6.23;;
34565;SDS011;20803;42.676;26.348;2023-12-04T06:38:27;20.33;;;9.43;;
34565;SDS011;20803;42.676;26.348;2023-12-04T06:40:57;11.13;;;6.97;;
34565;SDS011;20803;42.676;26.348;2023-12-04T06:43:25;17.80;;;8.53;;
34565;SDS011;20803;42.676;26.348;2023-12-04T06:45:51;13.63;;;7.87;;
34565;SDS011;20803;42.676;26.348;2023-12-04T06:48:16;12.63;;;7.20;;
34565;SDS011;20803;42.676;26.348;2023-12-04T06:50:42;8.93;;;6.30;;
34565;SDS011;20803;42.676;26.348;2023-12-04T06:53:08;11.67;;;7.20;;
34565;SDS011;20803;42.676;26.348;2023-12-04T06:55:34;12.60;;;7.53;;
34565;SDS011;20803;42.676;26.348;2023-12-04T06:57:59;12.73;;;6.97;;
34565;SDS011;20803;42.676;26.348;2023-12-04T07:00:25;9.13;;;6.20;;
34565;SDS011;20803;42.676;26.348;2023-12-04T07:02:52;7.73;;;6.00;;
34565;SDS011;20803;42.676;26.348;2023-12-04T07:05:19;9.67;;;6.43;;
34565;SDS011;20803;42.676;26.348;2023-12-04T07:07:44;12.73;;;7.10;;
34565;SDS011;20803;42.676;26.348;2023-12-04T07:10:10;9.00;;;6.10;;
34565;SDS011;20803;42.676;26.348;2023-12-04T07:12:40;8.17;;;6.27;;
34565;SDS011;20803;42.676;26.348;2023-12-04T07:15:09;7.60;;;5.57;;
34565;SDS011;20803;42.676;26.348;2023-12-04T07:17:36;7.77;;;6.03;;
34565;SDS011;20803;42.676;26.348;2023-12-04T07:20:04;6.87;;;4.70;;
34565;SDS011;20803;42.676;26.348;2023-12-04T07:22:33;4.30;;;3.70;;
34565;SDS011;20803;42.676;26.348;2023-12-04T07:24:59;5.23;;;3.70;;
34565;SDS011;20803;42.676;26.348;2023-12-04T07:27:25;5.57;;;3.90;;
34565;SDS011;20803;42.676;26.348;2023-12-04T07:29:50;4.73;;;3.83;;
34565;SDS011;20803;42.676;26.348;2023-12-04T07:32:16;5.13;;;3.67;;
34565;SDS011;20803;42.676;26.348;2023-12-04T07:34:43;5.30;;;3.87;;
34565;SDS011;20803;42.676;26.348;2023-12-04T07:37:08;5.80;;;3.67;;
34565;SDS011;20803;42.676;26.348;2023-12-04T07:39:34;4.07;;;3.33;;
34565;SDS011;20803;42.676;26.348;2023-12-04T07:41:59;9.33;;;5.17;;
34565;SDS011;20803;42.676;26.348;2023-12-04T07:44:25;5.87;;;3.87;;
34565;SDS011;20803;42.676;26.348;2023-12-04T07:46:50;7.27;;;3.80;;
34565;SDS011;20803;42.676;26.348;2023-12-04T07:49:16;5.97;;;4.57;;
34565;SDS011;20803;42.676;26.348;2023-12-04T07:51:41;6.10;;;4.07;;
34565;SDS011;20803;42.676;26.348;2023-12-04T07:54:07;4.67;;;3.40;;
34565;SDS011;20803;42.676;26.348;2023-12-04T07:56:32;4.73;;;3.30;;
34565;SDS011;20803;42.676;26.348;2023-12-04T07:58:58;4.53;;;3.30;;
34565;SDS011;20803;42.676;26.348;2023-12-04T08:01:26;4.43;;;3.50;;
34565;SDS011;20803;42.676;26.348;2023-12-04T08:03:51;6.23;;;3.93;;
34565;SDS011;20803;42.676;26.348;2023-12-04T08:06:16;10.40;;;5.57;;
34565;SDS011;20803;42.676;26.348;2023-12-04T08:08:44;6.27;;;4.20;;
34565;SDS011;20803;42.676;26.348;2023-12-04T08:11:10;5.07;;;3.40;;
34565;SDS011;20803;42.676;26.348;2023-12-04T08:13:35;4.93;;;3.50;;
34565;SDS011;20803;42.676;26.348;2023-12-04T08:16:02;3.93;;;3.20;;
34565;SDS011;20803;42.676;26.348;2023-12-04T08:18:28;4.60;;;3.50;;
34565;SDS011;20803;42.676;26.348;2023-12-04T08:20:53;5.03;;;3.60;;
34565;SDS011;20803;42.676;26.348;2023-12-04T08:23:19;4.43;;;3.63;;
34565;SDS011;20803;42.676;26.348;2023-12-04T08:25:45;4.90;;;3.60;;
34565;SDS011;20803;42.676;26.348;2023-12-04T08:28:10;5.07;;;3.40;;
34565;SDS011;20803;42.676;26.348;2023-12-04T08:30:36;5.87;;;3.90;;
34565;SDS011;20803;42.676;26.348;2023-12-04T08:33:02;5.30;;;3.67;;
34565;SDS011;20803;42.676;26.348;2023-12-04T08:35:27;4.73;;;3.67;;
34565;SDS011;20803;42.676;26.348;2023-12-04T08:37:53;4.87;;;3.60;;
34565;SDS011;20803;42.676;26.348;2023-12-04T08:40:18;5.30;;;3.93;;
34565;SDS011;20803;42.676;26.348;2023-12-04T08:42:44;3.77;;;3.30;;
34565;SDS011;20803;42.676;26.348;2023-12-04T08:45:10;5.03;;;3.60;;
34565;SDS011;20803;42.676;26.348;2023-12-04T08:47:36;6.00;;;3.83;;
34565;SDS011;20803;42.676;26.348;2023-12-04T08:50:02;4.70;;;3.63;;
34565;SDS011;20803;42.676;26.348;2023-12-04T08:52:27;4.53;;;3.67;;
34565;SDS011;20803;42.676;26.348;2023-12-04T08:54:53;5.60;;;4.27;;
34565;SDS011;20803;42.676;26.348;2023-12-04T08:57:19;5.37;;;3.90;;
34565;SDS011;20803;42.676;26.348;2023-12-04T08:59:44;4.33;;;3.60;;
34565;SDS011;20803;42.676;26.348;2023-12-04T09:02:11;5.43;;;3.80;;
34565;SDS011;20803;42.676;26.348;2023-12-04T09:04:36;5.40;;;3.90;;
34565;SDS011;20803;42.676;26.348;2023-12-04T09:07:02;5.40;;;4.37;;
34565;SDS011;20803;42.676;26.348;2023-12-04T09:09:28;5.57;;;4.33;;
34565;SDS011;20803;42.676;26.348;2023-12-04T09:11:53;6.40;;;4.80;;
34565;SDS011;20803;42.676;26.348;2023-12-04T09:14:19;5.70;;;4.63;;
34565;SDS011;20803;42.676;26.348;2023-12-04T09:16:44;5.97;;;4.43;;
34565;SDS011;20803;42.676;26.348;2023-12-04T09:19:10;6.07;;;4.60;;
34565;SDS011;20803;42.676;26.348;2023-12-04T09:21:35;6.07;;;4.40;;
34565;SDS011;20803;42.676;26.348;2023-12-04T09:24:01;9.30;;;5.03;;
34565;SDS011;20803;42.676;26.348;2023-12-04T09:26:26;5.57;;;4.47;;
34565;SDS011;20803;42.676;26.348;2023-12-04T09:28:52;7.50;;;4.30;;
34565;SDS011;20803;42.676;26.348;2023-12-04T09:31:18;7.77;;;5.10;;
34565;SDS011;20803;42.676;26.348;2023-12-04T09:33:44;7.10;;;5.00;;
34565;SDS011;20803;42.676;26.348;2023-12-04T09:36:09;5.77;;;4.30;;
34565;SDS011;20803;42.676;26.348;2023-12-04T09:38:35;6.77;;;5.30;;
34565;SDS011;20803;42.676;26.348;2023-12-04T09:41:01;8.80;;;5.33;;
34565;SDS011;20803;42.676;26.348;2023-12-04T09:43:30;6.20;;;4.70;;
34565;SDS011;20803;42.676;26.348;2023-12-04T09:45:57;8.77;;;6.03;;
34565;SDS011;20803;42.676;26.348;2023-12-04T09:48:26;9.47;;;6.17;;
34565;SDS011;20803;42.676;26.348;2023-12-04T09:50:53;9.03;;;6.43;;
34565;SDS011;20803;42.676;26.348;2023-12-04T09:53:19;11.90;;;6.03;;
34565;SDS011;20803;42.676;26.348;2023-12-04T09:55:48;8.53;;;6.17;;
34565;SDS011;20803;42.676;26.348;2023-12-04T09:58:14;11.33;;;6.37;;
34565;SDS011;20803;42.676;26.348;2023-12-04T10:00:40;7.87;;;6.03;;
34565;SDS011;20803;42.676;26.348;2023-12-04T10:03:07;12.43;;;6.27;;
34565;SDS011;20803;42.676;26.348;2023-12-04T10:05:33;8.57;;;5.47;;
34565;SDS011;20803;42.676;26.348;2023-12-04T10:07:59;8.73;;;6.30;;
34565;SDS011;20803;42.676;26.348;2023-12-04T10:10:24;12.27;;;6.47;;
34565;SDS011;20803;42.676;26.348;2023-12-04T10:12:50;10.80;;;7.40;;
34565;SDS011;20803;42.676;26.348;2023-12-04T10:15:16;13.83;;;8.57;;
34565;SDS011;20803;42.676;26.348;2023-12-04T10:17:41;12.20;;;8.20;;
34565;SDS011;20803;42.676;26.348;2023-12-04T10:20:12;13.47;;;8.87;;
34565;SDS011;20803;42.676;26.348;2023-12-04T10:22:53;11.10;;;7.53;;
34565;SDS011;20803;42.676;26.348;2023-12-04T10:25:20;12.90;;;7.73;;
34565;SDS011;20803;42.676;26.348;2023-12-04T10:27:46;12.17;;;8.17;;
34565;SDS011;20803;42.676;26.348;2023-12-04T10:30:22;13.77;;;8.60;;
34565;SDS011;20803;42.676;26.348;2023-12-04T10:32:58;14.07;;;10.23;;
34565;SDS011;20803;42.676;26.348;2023-12-04T10:35:30;12.03;;;7.97;;
34565;SDS011;20803;42.676;26.348;2023-12-04T10:37:58;11.50;;;8.73;;
34565;SDS011;20803;42.676;26.348;2023-12-04T10:40:28;17.20;;;8.93;;
34565;SDS011;20803;42.676;26.348;2023-12-04T10:45:34;13.00;;;9.47;;
34565;SDS011;20803;42.676;26.348;2023-12-04T10:48:00;16.47;;;10.23;;
34565;SDS011;20803;42.676;26.348;2023-12-04T10:50:30;13.13;;;9.03;;
34565;SDS011;20803;42.676;26.348;2023-12-04T10:53:01;15.60;;;10.53;;
34565;SDS011;20803;42.676;26.348;2023-12-04T10:55:29;16.70;;;10.63;;
34565;SDS011;20803;42.676;26.348;2023-12-04T10:57:55;18.13;;;10.43;;
34565;SDS011;20803;42.676;26.348;2023-12-04T11:00:22;14.43;;;11.13;;
34565;SDS011;20803;42.676;26.348;2023-12-04T11:02:49;15.93;;;10.30;;
34565;SDS011;20803;42.676;26.348;2023-12-04T11:05:19;17.00;;;10.50;;
34565;SDS011;20803;42.676;26.348;2023-12-04T11:08:08;11.90;;;9.63;;
34565;SDS011;20803;42.676;26.348;2023-12-04T11:10:36;13.37;;;8.20;;
34565;SDS011;20803;42.676;26.348;2023-12-04T11:13:15;11.50;;;8.80;;
34565;SDS011;20803;42.676;26.348;2023-12-04T11:15:47;14.07;;;9.60;;
34565;SDS011;20803;42.676;26.348;2023-12-04T11:18:15;12.33;;;8.47;;
34565;SDS011;20803;42.676;26.348;2023-12-04T11:20:44;24.17;;;14.20;;
34565;SDS011;20803;42.676;26.348;2023-12-04T11:23:16;22.70;;;14.67;;
34565;SDS011;20803;42.676;26.348;2023-12-04T11:25:43;18.17;;;12.10;;
34565;SDS011;20803;42.676;26.348;2023-12-04T11:28:09;25.07;;;13.03;;
34565;SDS011;20803;42.676;26.348;2023-12-04T11:30:36;19.83;;;12.73;;
34565;SDS011;20803;42.676;26.348;2023-12-04T11:33:04;20.70;;;11.40;;
34565;SDS011;20803;42.676;26.348;2023-12-04T11:35:30;18.93;;;11.43;;
34565;SDS011;20803;42.676;26.348;2023-12-04T11:37:55;26.13;;;13.80;;
34565;SDS011;20803;42.676;26.348;2023-12-04T11:40:22;23.03;;;11.10;;
34565;SDS011;20803;42.676;26.348;2023-12-04T11:42:48;21.87;;;11.70;;
34565;SDS011;20803;42.676;26.348;2023-12-04T11:45:20;16.80;;;10.60;;
34565;SDS011;20803;42.676;26.348;2023-12-04T11:47:53;15.37;;;10.03;;
34565;SDS011;20803;42.676;26.348;2023-12-04T11:50:21;17.27;;;11.63;;
34565;SDS011;20803;42.676;26.348;2023-12-04T11:52:49;19.10;;;10.67;;
34565;SDS011;20803;42.676;26.348;2023-12-04T11:55:21;17.73;;;10.50;;
34565;SDS011;20803;42.676;26.348;2023-12-04T11:57:48;16.30;;;11.63;;
34565;SDS011;20803;42.676;26.348;2023-12-04T12:02:47;27.30;;;15.53;;
34565;SDS011;20803;42.676;26.348;2023-12-04T12:05:13;23.33;;;13.90;;
34565;SDS011;20803;42.676;26.348;2023-12-04T12:07:38;29.93;;;17.53;;
34565;SDS011;20803;42.676;26.348;2023-12-04T12:10:04;25.00;;;15.90;;
34565;SDS011;20803;42.676;26.348;2023-12-04T12:12:30;22.10;;;13.83;;
34565;SDS011;20803;42.676;26.348;2023-12-04T12:14:57;25.87;;;13.43;;
34565;SDS011;20803;42.676;26.348;2023-12-04T12:17:22;21.30;;;12.90;;
34565;SDS011;20803;42.676;26.348;2023-12-04T12:19:48;20.47;;;11.90;;
34565;SDS011;20803;42.676;26.348;2023-12-04T12:22:13;20.60;;;12.37;;
34565;SDS011;20803;42.676;26.348;2023-12-04T12:24:39;22.03;;;13.20;;
34565;SDS011;20803;42.676;26.348;2023-12-04T12:27:05;22.20;;;13.03;;
34565;SDS011;20803;42.676;26.348;2023-12-04T12:29:30;27.17;;;13.27;;
34565;SDS011;20803;42.676;26.348;2023-12-04T12:31:56;19.87;;;12.73;;
34565;SDS011;20803;42.676;26.348;2023-12-04T12:34:21;19.97;;;12.37;;
34565;SDS011;20803;42.676;26.348;2023-12-04T12:36:47;23.93;;;12.20;;
34565;SDS011;20803;42.676;26.348;2023-12-04T12:39:13;20.17;;;11.43;;
34565;SDS011;20803;42.676;26.348;2023-12-04T12:41:45;18.33;;;11.60;;
34565;SDS011;20803;42.676;26.348;2023-12-04T12:44:12;20.33;;;10.83;;
34565;SDS011;20803;42.676;26.348;2023-12-04T12:46:40;17.13;;;10.37;;
34565;SDS011;20803;42.676;26.348;2023-12-04T12:49:05;16.57;;;9.27;;
34565;SDS011;20803;42.676;26.348;2023-12-04T12:51:31;14.30;;;8.77;;
34565;SDS011;20803;42.676;26.348;2023-12-04T12:53:57;11.77;;;8.30;;
34565;SDS011;20803;42.676;26.348;2023-12-04T12:56:23;21.17;;;9.53;;
34565;SDS011;20803;42.676;26.348;2023-12-04T12:58:49;11.50;;;8.43;;
34565;SDS011;20803;42.676;26.348;2023-12-04T13:01:15;15.50;;;8.20;;
34565;SDS011;20803;42.676;26.348;2023-12-04T13:03:41;17.03;;;9.73;;
34565;SDS011;20803;42.676;26.348;2023-12-04T13:06:12;20.63;;;8.23;;
34565;SDS011;20803;42.676;26.348;2023-12-04T13:08:37;17.67;;;7.83;;
34565;SDS011;20803;42.676;26.348;2023-12-04T13:11:03;15.23;;;8.07;;
34565;SDS011;20803;42.676;26.348;2023-12-04T13:13:29;14.90;;;7.87;;
34565;SDS011;20803;42.676;26.348;2023-12-04T13:15:55;13.53;;;8.43;;
34565;SDS011;20803;42.676;26.348;2023-12-04T13:18:20;11.93;;;8.67;;
34565;SDS011;20803;42.676;26.348;2023-12-04T13:20:46;12.97;;;9.03;;
34565;SDS011;20803;42.676;26.348;2023-12-04T13:23:11;17.57;;;11.53;;
34565;SDS011;20803;42.676;26.348;2023-12-04T13:25:37;17.57;;;11.37;;
34565;SDS011;20803;42.676;26.348;2023-12-04T13:28:02;15.50;;;10.07;;
34565;SDS011;20803;42.676;26.348;2023-12-04T13:30:28;17.97;;;10.07;;
34565;SDS011;20803;42.676;26.348;2023-12-04T13:32:53;10.10;;;6.70;;
34565;SDS011;20803;42.676;26.348;2023-12-04T13:35:19;12.47;;;7.03;;
34565;SDS011;20803;42.676;26.348;2023-12-04T13:37:44;9.50;;;7.10;;
34565;SDS011;20803;42.676;26.348;2023-12-04T13:40:11;9.47;;;6.93;;
34565;SDS011;20803;42.676;26.348;2023-12-04T13:42:41;14.43;;;8.80;;
34565;SDS011;20803;42.676;26.348;2023-12-04T13:45:25;10.77;;;7.67;;
34565;SDS011;20803;42.676;26.348;2023-12-04T13:47:51;10.07;;;7.27;;
34565;SDS011;20803;42.676;26.348;2023-12-04T13:50:18;17.90;;;9.10;;
34565;SDS011;20803;42.676;26.348;2023-12-04T13:52:43;14.63;;;8.63;;
34565;SDS011;20803;42.676;26.348;2023-12-04T13:55:09;14.07;;;8.23;;
34565;SDS011;20803;42.676;26.348;2023-12-04T13:57:58;13.77;;;8.17;;
34565;SDS011;20803;42.676;26.348;2023-12-04T14:00:24;13.00;;;7.53;;
34565;SDS011;20803;42.676;26.348;2023-12-04T14:02:50;9.70;;;6.63;;
34565;SDS011;20803;42.676;26.348;2023-12-04T14:05:21;9.57;;;6.77;;
34565;SDS011;20803;42.676;26.348;2023-12-04T14:07:47;8.97;;;6.80;;
34565;SDS011;20803;42.676;26.348;2023-12-04T14:10:13;9.20;;;6.77;;
34565;SDS011;20803;42.676;26.348;2023-12-04T14:12:40;9.43;;;6.57;;
34565;SDS011;20803;42.676;26.348;2023-12-04T14:15:06;9.17;;;6.93;;
34565;SDS011;20803;42.676;26.348;2023-12-04T14:17:31;10.23;;;6.43;;
34565;SDS011;20803;42.676;26.348;2023-12-04T14:19:57;10.87;;;7.60;;
34565;SDS011;20803;42.676;26.348;2023-12-04T14:22:22;8.37;;;6.20;;
34565;SDS011;20803;42.676;26.348;2023-12-04T14:24:48;8.70;;;6.03;;
34565;SDS011;20803;42.676;26.348;2023-12-04T14:27:13;7.53;;;6.13;;
34565;SDS011;20803;42.676;26.348;2023-12-04T14:29:39;8.57;;;6.13;;